createdAt,value
2024-01-14T00:24:05.425Z,0.9
2024-01-14T00:34:08.150Z,0.8
2024-01-14T00:44:10.289Z,0.8
2024-01-14T00:54:12.147Z,0.8
2024-01-14T01:04:14.317Z,0.8
2024-01-14T01:14:16.329Z,0.8
2024-01-14T01:24:27.960Z,0.8
2024-01-14T01:34:30.032Z,0.8
2024-01-14T01:44:31.696Z,0.9
2024-01-14T01:54:33.846Z,0.9
2024-01-14T02:04:36.529Z,1
2024-01-14T02:24:41.793Z,1
2024-01-14T02:34:43.585Z,1
2024-01-14T02:44:45.902Z,1
2024-01-14T02:54:47.899Z,1
2024-01-14T03:14:51.625Z,1
2024-01-14T03:24:53.355Z,0.9
2024-01-14T03:34:55.963Z,1
2024-01-14T03:44:57.947Z,1
2024-01-14T03:54:59.788Z,1
2024-01-14T04:05:01.761Z,1
2024-01-14T04:15:03.568Z,1.1
2024-01-14T04:25:05.597Z,1.1
2024-01-14T04:35:07.340Z,1.1
2024-01-14T04:55:11.866Z,1.1
2024-01-14T05:05:14.562Z,1
2024-01-14T05:15:16.553Z,0.9
2024-01-14T05:25:18.244Z,0.9
2024-01-14T05:35:20.235Z,0.9
2024-01-14T05:45:22.524Z,0.9
2024-01-14T05:55:24.926Z,1
2024-01-14T06:05:26.844Z,0.9
2024-01-14T06:15:28.831Z,0.8
2024-01-14T06:35:33.119Z,0.9
2024-01-14T06:45:35.674Z,0.9
2024-01-14T06:55:37.625Z,0.8
2024-01-14T07:05:40.088Z,0.8
2024-01-14T07:15:42.540Z,0.8
2024-01-14T07:25:44.487Z,0.8
2024-01-14T07:35:46.854Z,0.7
2024-01-14T07:55:51.717Z,0.7
2024-01-14T08:05:53.893Z,0.7
2024-01-14T08:15:58.268Z,0.8
2024-01-14T08:25:57.581Z,0.8
2024-01-14T08:35:59.972Z,0.8
2024-01-14T08:46:02.503Z,0.8
2024-01-14T08:56:04.600Z,0.8
2024-01-14T09:16:09.027Z,0.9
2024-01-14T09:26:11.592Z,0.9
2024-01-14T09:36:14.327Z,0.9
2024-01-14T09:46:16.467Z,0.9
2024-01-14T09:56:18.927Z,0.9
2024-01-14T10:16:47.860Z,0.9
2024-01-14T10:26:26.015Z,0.9
2024-01-14T10:36:27.775Z,0.8
2024-01-14T10:46:29.867Z,0.8
2024-01-14T10:56:32.460Z,0.8
2024-01-14T11:06:34.289Z,0.8
2024-01-14T11:16:36.357Z,0.8
2024-01-14T11:26:38.524Z,0.8
2024-01-14T11:36:40.546Z,0.8
2024-01-14T11:46:43.740Z,0.8
2024-01-14T11:56:45.032Z,0.8
2024-01-14T12:16:49.844Z,0.8
2024-01-14T12:26:52.093Z,0.8
2024-01-14T12:36:54.963Z,0.7
2024-01-14T12:46:57.490Z,0.7
2024-01-14T12:57:01.606Z,0.7
2024-01-14T13:07:00.466Z,0.7
2024-01-14T13:17:03.117Z,0.8
2024-01-14T13:27:05.272Z,0.8
2024-01-14T13:47:09.918Z,0.8
2024-01-14T13:57:12.551Z,0.8
2024-01-14T14:17:16.070Z,0.8
2024-01-14T14:37:20.521Z,0.7
2024-01-14T15:17:29.849Z,0.7
2024-01-14T15:27:32.023Z,0.6
2024-01-14T16:07:40.852Z,0.6
2024-01-14T16:17:43.517Z,0.6
2024-01-14T16:37:48.358Z,0.6
2024-01-14T16:47:50.524Z,0.6
2024-01-14T16:57:52.930Z,0.6
2024-01-14T17:07:55.455Z,0.5
2024-01-14T17:17:57.764Z,0.5
2024-01-14T17:28:00.276Z,0.5
2024-01-14T17:38:02.707Z,0.5
2024-01-14T18:18:11.862Z,0.4
2024-01-14T18:28:13.910Z,0.3
2024-01-14T18:38:16.597Z,0.3
2024-01-14T18:48:19.205Z,0.2
2024-01-14T18:58:21.254Z,0.1
2024-01-14T19:08:23.910Z,0
2024-01-14T19:18:26.224Z,0
2024-01-14T19:28:28.462Z,0
2024-01-14T19:38:30.875Z,0
2024-01-14T19:48:32.917Z,0
2024-01-14T19:58:35.160Z,0
2024-01-14T20:08:36.897Z,0
2024-01-14T20:28:41.783Z,0
2024-01-14T20:48:46.318Z,0
2024-01-14T21:08:50.836Z,0
2024-01-14T21:18:53.356Z,0.1
2024-01-14T21:28:55.226Z,0.2
2024-01-14T21:48:59.456Z,0.3
2024-01-14T21:59:01.322Z,0.4
2024-01-14T22:09:03.674Z,0.4
2024-01-14T22:19:06.219Z,0.5
2024-01-14T22:29:08.844Z,0.7
2024-01-14T22:39:10.734Z,0.7
2024-01-14T22:49:13.461Z,0.5
2024-01-14T23:49:27.818Z,0.4
2024-01-14T23:59:30.021Z,0.5
